Aviation Digital Data Service (ADDS)

Output produced by METARs form (0834 UTC 18 February 2019)
found at http://www.aviationweather.gov/metar/data/
 
METAR text: NSFA 180800Z 16003KT 9999 FEW020TCU BKN290 26/25 Q1009 RMK TCU TO SW
Conditions at: NSFA (FALEOLO INT/APIA, WS) observed 0800 UTC 18 February 2019
Temperature: 26.0°C (79°F)
Dewpoint: 25.0°C (77°F) [RH = 94%]
Pressure (altimeter): 29.79 inches Hg (1009.0 mb)
Winds: from the SSE (160 degrees) at 3 MPH (3 knots; 1.5 m/s)
Visibility: 6 or more miles (10+ km)
Ceiling: 29000 feet AGL
Clouds: few clouds at 2000 feet AGL
broken clouds at 29000 feet AGL
Weather: no significant weather observed at this time

METAR text: NSFA 180700Z 00000KT 9999 FEW020 SCT045 BKN170 27/25 Q1008 RMK NIL
Conditions at: NSFA (FALEOLO INT/APIA, WS) observed 0700 UTC 18 February 2019
Temperature: 27.0°C (81°F)
Dewpoint: 25.0°C (77°F) [RH = 89%]
Pressure (altimeter): 29.76 inches Hg (1008.0 mb)
Winds: calm
Visibility: 6 or more miles (10+ km)
Ceiling: 17000 feet AGL
Clouds: few clouds at 2000 feet AGL
scattered clouds at 4500 feet AGL
broken clouds at 17000 feet AGL
Weather: no significant weather observed at this time

METAR text: NSFA 180600Z 00000KT 9999 VCSH FEW020CB SCT070 BKN250 29/25 Q1008 CB TO E
Conditions at: NSFA (FALEOLO INT/APIA, WS) observed 0600 UTC 18 February 2019
Temperature: 29.0°C (84°F)
Dewpoint: 25.0°C (77°F) [RH = 79%]
Pressure (altimeter): 29.76 inches Hg (1008.0 mb)
Winds: calm
Visibility: 6 or more miles (10+ km)
Ceiling: 25000 feet AGL
Clouds: few clouds at 2000 feet AGL
scattered clouds at 7000 feet AGL
broken clouds at 25000 feet AGL
Weather: VCSH  (showers in vicinity)

METAR text: NSFA 180500Z 00000KT 9999 VCSH FEW018CB SCT024 BKN190 30/25 Q1007 RMK CB TO E
Conditions at: NSFA (FALEOLO INT/APIA, WS) observed 0500 UTC 18 February 2019
Temperature: 30.0°C (86°F)
Dewpoint: 25.0°C (77°F) [RH = 75%]
Pressure (altimeter): 29.73 inches Hg (1007.0 mb)
Winds: calm
Visibility: 6 or more miles (10+ km)
Ceiling: 19000 feet AGL
Clouds: few clouds at 1800 feet AGL
scattered clouds at 2400 feet AGL
broken clouds at 19000 feet AGL
Weather: VCSH  (showers in vicinity)

METAR text: NSFA 180400Z 00000KT 9999 FEW024 SCT060 BKN140 31/26 Q1007 RMK NIL
Conditions at: NSFA (FALEOLO INT/APIA, WS) observed 0400 UTC 18 February 2019
Temperature: 31.0°C (88°F)
Dewpoint: 26.0°C (79°F) [RH = 75%]
Pressure (altimeter): 29.73 inches Hg (1007.0 mb)
Winds: calm
Visibility: 6 or more miles (10+ km)
Ceiling: 14000 feet AGL
Clouds: few clouds at 2400 feet AGL
scattered clouds at 6000 feet AGL
broken clouds at 14000 feet AGL
Weather: no significant weather observed at this time

METAR text: NSFA 180300Z 11005KT 9999 FEW020 SCT045 BKN140 29/26 Q1007
Conditions at: NSFA (FALEOLO INT/APIA, WS) observed 0300 UTC 18 February 2019
Temperature: 29.0°C (84°F)
Dewpoint: 26.0°C (79°F) [RH = 84%]
Pressure (altimeter): 29.73 inches Hg (1007.0 mb)
Winds: from the ESE (110 degrees) at 6 MPH (5 knots; 2.6 m/s)
Visibility: 6 or more miles (10+ km)
Ceiling: 14000 feet AGL
Clouds: few clouds at 2000 feet AGL
scattered clouds at 4500 feet AGL
broken clouds at 14000 feet AGL
Weather: no significant weather observed at this time

METAR text: NSFA 180200Z 09004KT 9999 VCSH FEW018 FEW020CB SCT045 BKN140 29/26 Q1007 RMK CB TO SE/RERA ---
Conditions at: NSFA (FALEOLO INT/APIA, WS) observed 0200 UTC 18 February 2019
Temperature: 29.0°C (84°F)
Dewpoint: 26.0°C (79°F) [RH = 84%]
Pressure (altimeter): 29.73 inches Hg (1007.0 mb)
Winds: from the E (90 degrees) at 5 MPH (4 knots; 2.1 m/s)
Visibility: 6 or more miles (10+ km)
Ceiling: 14000 feet AGL
Clouds: few clouds at 1800 feet AGL
few clouds at 2000 feet AGL
scattered clouds at 4500 feet AGL
broken clouds at 14000 feet AGL
Weather: VCSH  (showers in vicinity)

METAR text: NSFA 180100Z 29006KT 9999 2000ESE FEW018CB SCT042 BKN290 32/26 Q1007 RMK CB TO ESE
Conditions at: NSFA (FALEOLO INT/APIA, WS) observed 0100 UTC 18 February 2019
Temperature: 32.0°C (90°F)
Dewpoint: 26.0°C (79°F) [RH = 71%]
Pressure (altimeter): 29.73 inches Hg (1007.0 mb)
Winds: from the WNW (290 degrees) at 7 MPH (6 knots; 3.1 m/s)
Visibility: 6 or more miles (10+ km)
Ceiling: 29000 feet AGL
Clouds: few clouds at 1800 feet AGL
scattered clouds at 4200 feet AGL
broken clouds at 29000 feet AGL
Weather: no significant weather observed at this time

METAR text: NSFA 180040Z 30006KT 9999 VCSH FEW018CB SCT045 BKN280 31/26 Q1007 RMK DISTANT SHOWERS AND CB TO SE / NW/ SPECI CONDX CEASE
Conditions at: NSFA (FALEOLO INT/APIA, WS) observed 0040 UTC 18 February 2019
Temperature: 31.0°C (88°F)
Dewpoint: 26.0°C (79°F) [RH = 75%]
Pressure (altimeter): 29.73 inches Hg (1007.0 mb)
Winds: from the WNW (300 degrees) at 7 MPH (6 knots; 3.1 m/s)
Visibility: 6 or more miles (10+ km)
Ceiling: 28000 feet AGL
Clouds: few clouds at 1800 feet AGL
scattered clouds at 4500 feet AGL
broken clouds at 28000 feet AGL
Weather: VCSH  (showers in vicinity)

METAR text: NSFA 180030Z 30006KT 9999 3000ESE TS FEW018CB SCT022 BKN280 31/26 Q1008 RMK CB TO ESE AND NW
Conditions at: NSFA (FALEOLO INT/APIA, WS) observed 0030 UTC 18 February 2019
Temperature: 31.0°C (88°F)
Dewpoint: 26.0°C (79°F) [RH = 75%]
Pressure (altimeter): 29.76 inches Hg (1008.0 mb)
Winds: from the WNW (300 degrees) at 7 MPH (6 knots; 3.1 m/s)
Visibility: 6 or more miles (10+ km)
Ceiling: 28000 feet AGL
Clouds: few clouds at 1800 feet AGL
scattered clouds at 2200 feet AGL
broken clouds at 28000 feet AGL
Weather: TS  (thunderstorm)

METAR text: NSFA 180020Z 29006KT 9999 3000ESE TS FEW018CB SCT022 BKN280 31/26 Q1008 RMK CB TO ESE AND NW
Conditions at: NSFA (FALEOLO INT/APIA, WS) observed 0020 UTC 18 February 2019
Temperature: 31.0°C (88°F)
Dewpoint: 26.0°C (79°F) [RH = 75%]
Pressure (altimeter): 29.76 inches Hg (1008.0 mb)
Winds: from the WNW (290 degrees) at 7 MPH (6 knots; 3.1 m/s)
Visibility: 6 or more miles (10+ km)
Ceiling: 28000 feet AGL
Clouds: few clouds at 1800 feet AGL
scattered clouds at 2200 feet AGL
broken clouds at 28000 feet AGL
Weather: TS  (thunderstorm)

METAR text: NSFA 180000Z 29006KT 9999 VCSH FEW018 FEW020TCU SCT045 BKN290 31/26 Q1008 RMK TCU TO NW
Conditions at: NSFA (FALEOLO INT/APIA, WS) observed 0000 UTC 18 February 2019
Temperature: 31.0°C (88°F)
Dewpoint: 26.0°C (79°F) [RH = 75%]
Pressure (altimeter): 29.76 inches Hg (1008.0 mb)
Winds: from the WNW (290 degrees) at 7 MPH (6 knots; 3.1 m/s)
Visibility: 6 or more miles (10+ km)
Ceiling: 29000 feet AGL
Clouds: few clouds at 1800 feet AGL
few clouds at 2000 feet AGL
scattered clouds at 4500 feet AGL
broken clouds at 29000 feet AGL
Weather: VCSH  (showers in vicinity)

METAR text: NSFA 172300Z 30004KT 9999 FEW020CB SCT022 BKN240 31/24 Q1009 RMK CB TO WNW
Conditions at: NSFA (FALEOLO INT/APIA, WS) observed 2300 UTC 17 February 2019
Temperature: 31.0°C (88°F)
Dewpoint: 24.0°C (75°F) [RH = 66%]
Pressure (altimeter): 29.79 inches Hg (1009.0 mb)
Winds: from the WNW (300 degrees) at 5 MPH (4 knots; 2.1 m/s)
Visibility: 6 or more miles (10+ km)
Ceiling: 24000 feet AGL
Clouds: few clouds at 2000 feet AGL
scattered clouds at 2200 feet AGL
broken clouds at 24000 feet AGL
Weather: no significant weather observed at this time

METAR text: NSFA 172200Z 06003KT 9999 SCT020 SCT260 31/23 Q1009
Conditions at: NSFA (FALEOLO INT/APIA, WS) observed 2200 UTC 17 February 2019
Temperature: 31.0°C (88°F)
Dewpoint: 23.0°C (73°F) [RH = 63%]
Pressure (altimeter): 29.79 inches Hg (1009.0 mb)
Winds: from the ENE (60 degrees) at 3 MPH (3 knots; 1.5 m/s)
Visibility: 6 or more miles (10+ km)
Ceiling: at least 12,000 feet AGL
Clouds: scattered clouds at 2000 feet AGL
scattered clouds at 26000 feet AGL
Weather: no significant weather observed at this time

METAR text: NSFA 172100Z 25003KT 9999 SCT023 BKN260 30/25 Q1010
Conditions at: NSFA (FALEOLO INT/APIA, WS) observed 2100 UTC 17 February 2019
Temperature: 30.0°C (86°F)
Dewpoint: 25.0°C (77°F) [RH = 75%]
Pressure (altimeter): 29.82 inches Hg (1010.0 mb)
Winds: from the WSW (250 degrees) at 3 MPH (3 knots; 1.5 m/s)
Visibility: 6 or more miles (10+ km)
Ceiling: 26000 feet AGL
Clouds: scattered clouds at 2300 feet AGL
broken clouds at 26000 feet AGL
Weather: no significant weather observed at this time

METAR text: NSFA 172000Z 00000KT 9999 FEW023 SCT060 30/25 Q1010
Conditions at: NSFA (FALEOLO INT/APIA, WS) observed 2000 UTC 17 February 2019
Temperature: 30.0°C (86°F)
Dewpoint: 25.0°C (77°F) [RH = 75%]
Pressure (altimeter): 29.82 inches Hg (1010.0 mb)
Winds: calm
Visibility: 6 or more miles (10+ km)
Ceiling: at least 12,000 feet AGL
Clouds: few clouds at 2300 feet AGL
scattered clouds at 6000 feet AGL
Weather: no significant weather observed at this time

METAR text: NSFA 171900Z 16002KT 9999 FEW023 SCT056 BKN250 27/26 Q1009
Conditions at: NSFA (FALEOLO INT/APIA, WS) observed 1900 UTC 17 February 2019
Temperature: 27.0°C (81°F)
Dewpoint: 26.0°C (79°F) [RH = 94%]
Pressure (altimeter): 29.79 inches Hg (1009.0 mb)
Winds: from the SSE (160 degrees) at 2 MPH (2 knots; 1.0 m/s)
Visibility: 6 or more miles (10+ km)
Ceiling: 25000 feet AGL
Clouds: few clouds at 2300 feet AGL
scattered clouds at 5600 feet AGL
broken clouds at 25000 feet AGL
Weather: no significant weather observed at this time

METAR text: NSFA 171700Z 17004KT 9999 FEW023 25/25 Q1008 NOSIG
Conditions at: NSFA (FALEOLO INT/APIA, WS) observed 1700 UTC 17 February 2019
Temperature: 25.0°C (77°F)
Dewpoint: 25.0°C (77°F) [RH = 100%]
Pressure (altimeter): 29.76 inches Hg (1008.0 mb)
Winds: from the S (170 degrees) at 5 MPH (4 knots; 2.1 m/s)
Visibility: 6 or more miles (10+ km)
Ceiling: at least 12,000 feet AGL
Clouds: few clouds at 2300 feet AGL
Weather: no significant weather observed at this time

METAR text: NSFA 171600Z 17004KT 9999 FEW022 25/25 Q1008 NOSIG
Conditions at: NSFA (FALEOLO INT/APIA, WS) observed 1600 UTC 17 February 2019
Temperature: 25.0°C (77°F)
Dewpoint: 25.0°C (77°F) [RH = 100%]
Pressure (altimeter): 29.76 inches Hg (1008.0 mb)
Winds: from the S (170 degrees) at 5 MPH (4 knots; 2.1 m/s)
Visibility: 6 or more miles (10+ km)
Ceiling: at least 12,000 feet AGL
Clouds: few clouds at 2200 feet AGL
Weather: no significant weather observed at this time

METAR text: NSFA 171500Z 17002KT 9999 FEW022 26/25 Q1008
Conditions at: NSFA (FALEOLO INT/APIA, WS) observed 1500 UTC 17 February 2019
Temperature: 26.0°C (79°F)
Dewpoint: 25.0°C (77°F) [RH = 94%]
Pressure (altimeter): 29.76 inches Hg (1008.0 mb)
Winds: from the S (170 degrees) at 2 MPH (2 knots; 1.0 m/s)
Visibility: 6 or more miles (10+ km)
Ceiling: at least 12,000 feet AGL
Clouds: few clouds at 2200 feet AGL
Weather: no significant weather observed at this time

METAR text: NSFA 171400Z 14004KT 9999 FEW020 26/25 Q1008 NOSIG
Conditions at: NSFA (FALEOLO INT/APIA, WS) observed 1400 UTC 17 February 2019
Temperature: 26.0°C (79°F)
Dewpoint: 25.0°C (77°F) [RH = 94%]
Pressure (altimeter): 29.76 inches Hg (1008.0 mb)
Winds: from the SE (140 degrees) at 5 MPH (4 knots; 2.1 m/s)
Visibility: 6 or more miles (10+ km)
Ceiling: at least 12,000 feet AGL
Clouds: few clouds at 2000 feet AGL
Weather: no significant weather observed at this time

METAR text: NSFA 171300Z 17004KT 9999 FEW020 26/25 Q1008
Conditions at: NSFA (FALEOLO INT/APIA, WS) observed 1300 UTC 17 February 2019
Temperature: 26.0°C (79°F)
Dewpoint: 25.0°C (77°F) [RH = 94%]
Pressure (altimeter): 29.76 inches Hg (1008.0 mb)
Winds: from the S (170 degrees) at 5 MPH (4 knots; 2.1 m/s)
Visibility: 6 or more miles (10+ km)
Ceiling: at least 12,000 feet AGL
Clouds: few clouds at 2000 feet AGL
Weather: no significant weather observed at this time

METAR text: NSFA 171200Z 19005KT 9999 SCT020 26/25 Q1009
Conditions at: NSFA (FALEOLO INT/APIA, WS) observed 1200 UTC 17 February 2019
Temperature: 26.0°C (79°F)
Dewpoint: 25.0°C (77°F) [RH = 94%]
Pressure (altimeter): 29.79 inches Hg (1009.0 mb)
Winds: from the S (190 degrees) at 6 MPH (5 knots; 2.6 m/s)
Visibility: 6 or more miles (10+ km)
Ceiling: at least 12,000 feet AGL
Clouds: scattered clouds at 2000 feet AGL
Weather: no significant weather observed at this time

METAR text: NSFA 171100Z 20004KT 9999 FEW020 SCT022 26/25 Q1010
Conditions at: NSFA (FALEOLO INT/APIA, WS) observed 1100 UTC 17 February 2019
Temperature: 26.0°C (79°F)
Dewpoint: 25.0°C (77°F) [RH = 94%]
Pressure (altimeter): 29.82 inches Hg (1010.0 mb)
Winds: from the SSW (200 degrees) at 5 MPH (4 knots; 2.1 m/s)
Visibility: 6 or more miles (10+ km)
Ceiling: at least 12,000 feet AGL
Clouds: few clouds at 2000 feet AGL
scattered clouds at 2200 feet AGL
Weather: no significant weather observed at this time

METAR text: NSFA 171000Z 17004KT 9999 VCSH FEW018CB SCT022 BKN160 26/25 Q1010 RMK CB TO SW
Conditions at: NSFA (FALEOLO INT/APIA, WS) observed 1000 UTC 17 February 2019
Temperature: 26.0°C (79°F)
Dewpoint: 25.0°C (77°F) [RH = 94%]
Pressure (altimeter): 29.82 inches Hg (1010.0 mb)
Winds: from the S (170 degrees) at 5 MPH (4 knots; 2.1 m/s)
Visibility: 6 or more miles (10+ km)
Ceiling: 16000 feet AGL
Clouds: few clouds at 1800 feet AGL
scattered clouds at 2200 feet AGL
broken clouds at 16000 feet AGL
Weather: VCSH  (showers in vicinity)

METAR text: NSFA 170900Z 19004KT 9999 FEW018 FEW022CB BKN260 27/25 Q1010 RM K CB TO SW
Conditions at: NSFA (FALEOLO INT/APIA, WS) observed 0900 UTC 17 February 2019
Temperature: 27.0°C (81°F)
Dewpoint: 25.0°C (77°F) [RH = 89%]
Pressure (altimeter): 29.82 inches Hg (1010.0 mb)
Winds: from the S (190 degrees) at 5 MPH (4 knots; 2.1 m/s)
Visibility: 6 or more miles (10+ km)
Ceiling: 26000 feet AGL
Clouds: few clouds at 1800 feet AGL
few clouds at 2200 feet AGL
broken clouds at 26000 feet AGL
Weather: no significant weather observed at this time

METAR text: NSFA 170800Z 18004KT 9999 FEW020CB BKN290 27/26 Q1009 RMK CB TO ESE
Conditions at: NSFA (FALEOLO INT/APIA, WS) observed 0800 UTC 17 February 2019
Temperature: 27.0°C (81°F)
Dewpoint: 26.0°C (79°F) [RH = 94%]
Pressure (altimeter): 29.79 inches Hg (1009.0 mb)
Winds: from the S (180 degrees) at 5 MPH (4 knots; 2.1 m/s)
Visibility: 6 or more miles (10+ km)
Ceiling: 29000 feet AGL
Clouds: few clouds at 2000 feet AGL
broken clouds at 29000 feet AGL
Weather: no significant weather observed at this time

METAR text: NSFA 170700Z 18004KT 9999 FEW018CB SCT050 BKN180 28/26 Q1008 RM K CB TO S
Conditions at: NSFA (FALEOLO INT/APIA, WS) observed 0700 UTC 17 February 2019
Temperature: 28.0°C (82°F)
Dewpoint: 26.0°C (79°F) [RH = 89%]
Pressure (altimeter): 29.76 inches Hg (1008.0 mb)
Winds: from the S (180 degrees) at 5 MPH (4 knots; 2.1 m/s)
Visibility: 6 or more miles (10+ km)
Ceiling: 18000 feet AGL
Clouds: few clouds at 1800 feet AGL
scattered clouds at 5000 feet AGL
broken clouds at 18000 feet AGL
Weather: no significant weather observed at this time

METAR text: NSFA 170600Z 00000KT 9999 3000S VCSH FEW017 FEW020CB SCT060 29/ 26 Q1008 RMK CB TO S
Conditions at: NSFA (FALEOLO INT/APIA, WS) observed 0600 UTC 17 February 2019
Temperature: 29.0°C (84°F)
Dewpoint: missing
Pressure (altimeter): 29.76 inches Hg (1008.0 mb)
Winds: calm
Visibility: 6 or more miles (10+ km)
Ceiling: at least 12,000 feet AGL
Clouds: few clouds at 1700 feet AGL
few clouds at 2000 feet AGL
scattered clouds at 6000 feet AGL
Weather: VCSH  (showers in vicinity)

METAR text: NSFA 170500Z 26005KT 9999 3000S VCSH FEW018CB SCT024 BKN190 30/26 Q1007 RMK DISTANT SHOWERS AND CB TO S
Conditions at: NSFA (FALEOLO INT/APIA, WS) observed 0500 UTC 17 February 2019
Temperature: 30.0°C (86°F)
Dewpoint: 26.0°C (79°F) [RH = 79%]
Pressure (altimeter): 29.73 inches Hg (1007.0 mb)
Winds: from the W (260 degrees) at 6 MPH (5 knots; 2.6 m/s)
Visibility: 6 or more miles (10+ km)
Ceiling: 19000 feet AGL
Clouds: few clouds at 1800 feet AGL
scattered clouds at 2400 feet AGL
broken clouds at 19000 feet AGL
Weather: VCSH  (showers in vicinity)

METAR text: NSFA 170400Z 25007KT 9999 3000SSE VCSH FEW018CB SCT024 BKN290 31/26 Q1007 RMK CB TO SSE AND WNW
Conditions at: NSFA (FALEOLO INT/APIA, WS) observed 0400 UTC 17 February 2019
Temperature: 31.0°C (88°F)
Dewpoint: 26.0°C (79°F) [RH = 75%]
Pressure (altimeter): 29.73 inches Hg (1007.0 mb)
Winds: from the WSW (250 degrees) at 8 MPH (7 knots; 3.6 m/s)
Visibility: 6 or more miles (10+ km)
Ceiling: 29000 feet AGL
Clouds: few clouds at 1800 feet AGL
scattered clouds at 2400 feet AGL
broken clouds at 29000 feet AGL
Weather: VCSH SS  (showers in vicinity, sandstorm)

METAR text: NSFA 170300Z VRB03KT 9999 2000WNW TS FEW018CB BKN280 32/26 Q1007 RMK CB TO WNW AND SE
Conditions at: NSFA (FALEOLO INT/APIA, WS) observed 0300 UTC 17 February 2019
Temperature: 32.0°C (90°F)
Dewpoint: 26.0°C (79°F) [RH = 71%]
Pressure (altimeter): 29.73 inches Hg (1007.0 mb)
Winds: variable direction winds at 3 MPH (3 knots; 1.5 m/s)
Visibility: 6 or more miles (10+ km)
Ceiling: 28000 feet AGL
Clouds: few clouds at 1800 feet AGL
broken clouds at 28000 feet AGL
Weather: TS  (thunderstorm)

METAR text: NSFA 170200Z 01005KT 9999 2000WNW VCSH FEW018CB SCT024 32/27 Q1007 RMK DISTANT SHOWERS AND CB TO WNW
Conditions at: NSFA (FALEOLO INT/APIA, WS) observed 0200 UTC 17 February 2019
Temperature: 32.0°C (90°F)
Dewpoint: 27.0°C (81°F) [RH = 75%]
Pressure (altimeter): 29.73 inches Hg (1007.0 mb)
Winds: from the N (10 degrees) at 6 MPH (5 knots; 2.6 m/s)
Visibility: 6 or more miles (10+ km)
Ceiling: at least 12,000 feet AGL
Clouds: few clouds at 1800 feet AGL
scattered clouds at 2400 feet AGL
Weather: VCSH  (showers in vicinity)

METAR text: NSFA 170100Z 35005KT 9999 2000WNW VCSH FEW018 FEW020CB 32/26 Q1008 RMK DISTANT SHOWERS AND CB TO WNW
Conditions at: NSFA (FALEOLO INT/APIA, WS) observed 0100 UTC 17 February 2019
Temperature: 32.0°C (90°F)
Dewpoint: 26.0°C (79°F) [RH = 71%]
Pressure (altimeter): 29.76 inches Hg (1008.0 mb)
Winds: from the N (350 degrees) at 6 MPH (5 knots; 2.6 m/s)
Visibility: 6 or more miles (10+ km)
Ceiling: at least 12,000 feet AGL
Clouds: few clouds at 1800 feet AGL
few clouds at 2000 feet AGL
Weather: VCSH  (showers in vicinity)

METAR text: NSFA 170000Z 05007KT 010V080 9999 FEW020 FEW024TCU 33/26 Q1008 RMK TCU TO NW AND SE
Conditions at: NSFA (FALEOLO INT/APIA, WS) observed 0000 UTC 17 February 2019
Temperature: 33.0°C (91°F)
Dewpoint: 26.0°C (79°F) [RH = 67%]
Pressure (altimeter): 29.76 inches Hg (1008.0 mb)
Winds: from the NE (50 degrees) at 8 MPH (7 knots; 3.6 m/s)
Visibility: 6 or more miles (10+ km)
Ceiling: at least 12,000 feet AGL
Clouds: few clouds at 2000 feet AGL
few clouds at 2400 feet AGL
Weather: no significant weather observed at this time

METAR text: NSFA 162300Z 01007KT 320V040 9999 FEW020TCU SCT026 33/26 Q1009 RMK TCU TO WNW / N
Conditions at: NSFA (FALEOLO INT/APIA, WS) observed 2300 UTC 16 February 2019
Temperature: 33.0°C (91°F)
Dewpoint: 26.0°C (79°F) [RH = 67%]
Pressure (altimeter): 29.79 inches Hg (1009.0 mb)
Winds: from the N (10 degrees) at 8 MPH (7 knots; 3.6 m/s)
Visibility: 6 or more miles (10+ km)
Ceiling: at least 12,000 feet AGL
Clouds: few clouds at 2000 feet AGL
scattered clouds at 2600 feet AGL
Weather: no significant weather observed at this time

METAR text: NSFA 162200Z VRB03KT 9999 FEW020CB SCT022 31/26 Q1009 RMK CB TO NW
Conditions at: NSFA (FALEOLO INT/APIA, WS) observed 2200 UTC 16 February 2019
Temperature: 31.0°C (88°F)
Dewpoint: 26.0°C (79°F) [RH = 75%]
Pressure (altimeter): 29.79 inches Hg (1009.0 mb)
Winds: variable direction winds at 3 MPH (3 knots; 1.5 m/s)
Visibility: 6 or more miles (10+ km)
Ceiling: at least 12,000 feet AGL
Clouds: few clouds at 2000 feet AGL
scattered clouds at 2200 feet AGL
Weather: no significant weather observed at this time

METAR text: NSFA 162100Z 02006KT 9999 SCT024 31/26 Q1009
Conditions at: NSFA (FALEOLO INT/APIA, WS) observed 2100 UTC 16 February 2019
Temperature: 31.0°C (88°F)
Dewpoint: 26.0°C (79°F) [RH = 75%]
Pressure (altimeter): 29.79 inches Hg (1009.0 mb)
Winds: from the NNE (20 degrees) at 7 MPH (6 knots; 3.1 m/s)
Visibility: 6 or more miles (10+ km)
Ceiling: at least 12,000 feet AGL
Clouds: scattered clouds at 2400 feet AGL
Weather: no significant weather observed at this time

Forecast for: AMD
Text: TAF AMD NSFA 180526Z 1806/1906 26007KT 9999 FEW018 SCT024 BKN100
Forecast period: 0600 UTC 18 February 2019 to 0600 UTC 19 February 2019
Forecast type: FROM: standard forecast or significant change
Winds: from the W (260 degrees) at 8 MPH (7 knots; 3.6 m/s)
Visibility: 6 or more miles 10+ km)
Ceiling: 10000 feet AGL
Clouds: few clouds at 1800 feet AGL
scattered clouds at 2400 feet AGL
broken clouds at 10000 feet AGL
Weather: no significant weather forecast for this period
Text: PROB30
Forecast period: 0600 to 1200 UTC 18 February 2019
Forecast type: TEMPORARY: The following changes expected for less than half the time period
Visibility: 3 miles (5 km)
Ceiling: at least 12,000 feet AGL
Clouds: few clouds at 1800 feet AGL
Weather: TSRA  (rain associated with thunderstorm(s))